Time;durP1;ratioP1;P1;durP2;ratioP2;P2;SDS_P1;SDS_P2;PMS_P1;PMS_P2;Temp;Humidity;BMP_temperature;BMP_pressure;BME280_temperature;BME280_humidity;BME280_pressure;Samples;Min_cycle;Max_cycle;Signal;HPM_P1;HPM_P2
2021/11/19 00:01:33;;;;;;;37.47;22.02;;;;;;;9.98;100.00;102724.66;10569063;28;20051;-61
2021/11/19 00:06:36;;;;;;;35.95;19.13;;;;;;;10.05;100.00;102734.06;10586940;28;20074;-60
2021/11/19 00:11:41;;;;;;;44.08;20.75;;;;;;;10.10;100.00;102728.72;10586923;28;20050;-60
2021/11/19 00:16:46;;;;;;;35.90;20.88;;;;;;;10.16;100.00;102729.44;10568707;28;20044;-61
2021/11/19 00:21:49;;;;;;;38.28;22.55;;;;;;;10.03;100.00;102725.41;10586162;28;20541;-61
2021/11/19 00:26:52;;;;;;;36.28;20.13;;;;;;;10.05;100.00;102728.84;10586112;28;20526;-60
2021/11/19 00:31:54;;;;;;;57.63;23.95;;;;;;;10.23;100.00;102740.63;10585725;28;20047;-60
2021/11/19 00:36:58;;;;;;;42.25;23.45;;;;;;;10.12;100.00;102734.78;10586363;28;20086;-61
2021/11/19 00:42:02;;;;;;;46.50;24.35;;;;;;;10.20;100.00;102731.09;10585071;28;20415;-60
2021/11/19 00:47:06;;;;;;;43.75;25.58;;;;;;;10.13;100.00;102737.38;10585018;28;20062;-60
2021/11/19 00:52:11;;;;;;;40.78;23.13;;;;;;;10.10;100.00;102740.03;10584878;28;20039;-60
2021/11/19 00:57:16;;;;;;;50.20;25.58;;;;;;;10.17;100.00;102746.88;10567446;28;20049;-60
2021/11/19 01:02:22;;;;;;;50.30;25.48;;;;;;;10.10;100.00;102744.44;10566336;28;20491;-60
2021/11/19 01:07:25;;;;;;;54.20;27.55;;;;;;;10.15;100.00;102753.03;10566512;28;20406;-60
2021/11/19 01:12:29;;;;;;;43.47;25.55;;;;;;;10.10;100.00;102750.50;10584061;28;20483;-60
2021/11/19 01:17:47;;;;;;;52.88;24.73;;;;;;;10.26;100.00;102765.88;10584233;28;20039;-60
2021/11/19 01:22:53;;;;;;;52.00;28.73;;;;;;;10.18;100.00;102764.28;10583675;28;20502;-60
2021/11/19 01:27:55;;;;;;;47.88;27.45;;;;;;;10.06;100.00;102777.69;10565079;28;20491;-60
2021/11/19 01:32:58;;;;;;;52.00;27.45;;;;;;;10.17;100.00;102764.31;10583309;28;20052;-60
2021/11/19 01:38:00;;;;;;;59.78;30.83;;;;;;;10.10;100.00;102757.53;10583614;28;20043;-60
2021/11/19 01:43:05;;;;;;;50.30;28.17;;;;;;;10.11;100.00;102754.88;10582519;28;20510;-60
2021/11/19 01:48:12;;;;;;;48.92;28.00;;;;;;;10.20;100.00;102752.03;10583190;28;20047;-60
2021/11/19 01:53:17;;;;;;;40.08;26.23;;;;;;;10.16;100.00;102757.38;10564548;28;20127;-60
2021/11/19 01:58:26;;;;;;;51.72;28.58;;;;;;;10.07;100.00;102752.34;10564700;28;20039;-60
2021/11/19 02:03:32;;;;;;;50.90;27.90;;;;;;;10.15;100.00;102742.56;10564340;28;20403;-61
2021/11/19 02:08:37;;;;;;;46.53;28.92;;;;;;;10.21;100.00;102753.75;10582608;28;20051;-60
2021/11/19 02:13:52;;;;;;;49.63;29.95;;;;;;;10.17;100.00;102738.13;10564027;28;20048;-60
2021/11/19 02:18:59;;;;;;;65.63;34.13;;;;;;;10.25;100.00;102735.34;10582680;28;20044;-60
2021/11/19 02:24:05;;;;;;;48.95;29.63;;;;;;;10.33;100.00;102733.44;10563688;28;20396;-60
2021/11/19 02:29:08;;;;;;;57.92;33.38;;;;;;;10.28;100.00;102728.28;10581925;28;20048;-60
2021/11/19 02:34:11;;;;;;;60.60;35.05;;;;;;;10.21;100.00;102724.09;10581555;28;20039;-60
2021/11/19 02:39:14;;;;;;;55.53;33.17;;;;;;;10.32;100.00;102734.31;10581670;28;20044;-60
2021/11/19 02:44:23;;;;;;;62.08;35.67;;;;;;;10.25;100.00;102728.34;10589581;28;20056;-61
2021/11/19 02:49:26;;;;;;;62.28;35.92;;;;;;;10.31;100.00;102722.09;10590088;28;20053;-60
2021/11/19 02:54:31;;;;;;;58.80;35.22;;;;;;;10.14;100.00;102725.16;10589712;28;20046;-60
2021/11/19 02:59:33;;;;;;;64.40;39.55;;;;;;;10.19;100.00;102726.75;10589573;28;20502;-60
2021/11/19 03:04:42;;;;;;;58.88;38.53;;;;;;;10.27;100.00;102734.44;10589436;28;20043;-60
2021/11/19 03:10:01;;;;;;;59.85;37.28;;;;;;;10.33;100.00;102734.28;10589884;28;20047;-61
2021/11/19 03:15:10;;;;;;;65.20;38.92;;;;;;;10.28;100.00;102737.91;10571665;28;20047;-60
2021/11/19 03:20:15;;;;;;;62.38;40.85;;;;;;;10.29;100.00;102739.59;10570740;28;20043;-60
2021/11/19 03:25:21;;;;;;;67.30;39.45;;;;;;;10.30;100.00;102743.94;10570595;28;20048;-60
2021/11/19 03:30:25;;;;;;;60.88;38.63;;;;;;;10.38;100.00;102728.94;10588358;28;20479;-61
2021/11/19 03:35:28;;;;;;;65.53;37.17;;;;;;;10.36;100.00;102728.13;10588239;28;20044;-60
2021/11/19 03:40:35;;;;;;;63.45;39.65;;;;;;;10.35;100.00;102732.47;10570018;28;20353;-61
2021/11/19 03:45:43;;;;;;;59.90;36.28;;;;;;;10.33;100.00;102728.19;10569955;28;20051;-60
2021/11/19 03:51:10;;;;;;;62.70;40.00;;;;;;;10.45;100.00;102724.41;10586901;28;20507;-60
2021/11/19 03:56:13;;;;;;;78.75;39.47;;;;;;;10.49;100.00;102728.63;10569393;28;20427;-60
2021/11/19 04:01:26;;;;;;;64.18;40.05;;;;;;;10.41;100.00;102724.47;10587275;28;20055;-61
2021/11/19 04:06:29;;;;;;;62.03;36.80;;;;;;;10.52;100.00;102731.19;10587031;28;20040;-60
2021/11/19 04:11:31;;;;;;;66.53;40.47;;;;;;;10.41;100.00;102734.94;10586537;28;20407;-61
2021/11/19 04:16:41;;;;;;;83.68;44.65;;;;;;;10.41;100.00;102734.94;10586267;28;20483;-60
2021/11/19 04:21:44;;;;;;;61.53;39.38;;;;;;;10.46;100.00;102737.44;10568397;28;20047;-60
2021/11/19 04:26:47;;;;;;;69.93;37.72;;;;;;;10.49;100.00;102736.50;10586047;28;20047;-61
2021/11/19 04:32:04;;;;;;;76.53;42.88;;;;;;;10.47;100.00;102743.53;10585745;28;20047;-60
2021/11/19 04:37:06;;;;;;;71.68;39.85;;;;;;;10.56;100.00;102738.09;10586098;28;20039;-60
2021/11/19 04:42:09;;;;;;;68.72;41.72;;;;;;;10.57;100.00;102730.19;10585568;28;20059;-61
2021/11/19 04:47:13;;;;;;;75.65;42.70;;;;;;;10.49;100.00;102726.91;10567541;28;20454;-61
2021/11/19 04:52:16;;;;;;;71.18;40.20;;;;;;;10.42;100.00;102738.41;10584991;28;20052;-60
2021/11/19 04:57:19;;;;;;;56.20;37.45;;;;;;;10.53;100.00;102730.31;10585430;28;20043;-60
2021/11/19 05:02:23;;;;;;;79.65;40.97;;;;;;;10.37;100.00;102743.78;10583472;28;20054;-60
2021/11/19 05:07:26;;;;;;;83.75;44.53;;;;;;;10.42;100.00;102738.41;10566969;28;20085;-61
2021/11/19 05:12:34;;;;;;;73.30;43.03;;;;;;;10.45;100.00;102740.97;10566417;28;20122;-61
2021/11/19 05:17:37;;;;;;;72.22;39.53;;;;;;;10.52;100.00;102739.94;10584998;28;20075;-60
2021/11/19 05:22:40;;;;;;;63.03;37.50;;;;;;;10.47;100.00;102735.69;10584025;28;20052;-60
2021/11/19 05:27:43;;;;;;;68.03;38.55;;;;;;;10.53;100.00;102732.91;10583748;28;20054;-60
2021/11/19 05:32:46;;;;;;;76.65;42.10;;;;;;;10.47;100.00;102739.16;10584031;28;20057;-60
2021/11/19 05:37:50;;;;;;;77.57;40.60;;;;;;;10.54;100.00;102737.25;10564972;28;20514;-61
2021/11/19 05:42:53;;;;;;;77.63;43.30;;;;;;;10.49;100.00;102737.38;10583251;28;20056;-60
2021/11/19 05:47:56;;;;;;;74.43;42.92;;;;;;;10.48;100.00;102733.03;10583039;28;20051;-60
2021/11/19 05:52:58;;;;;;;83.35;45.20;;;;;;;10.36;100.00;102738.59;10582739;28;20048;-60
2021/11/19 05:58:01;;;;;;;80.85;44.38;;;;;;;10.41;100.00;102740.19;10582527;28;20043;-60
2021/11/19 06:03:04;;;;;;;73.88;38.58;;;;;;;10.41;100.00;102732.34;10582476;28;20441;-60
2021/11/19 06:08:06;;;;;;;73.15;42.53;;;;;;;10.47;100.00;102735.69;10564340;28;20047;-60
2021/11/19 06:13:11;;;;;;;80.68;43.17;;;;;;;10.44;100.00;102754.97;10582001;28;20051;-61
2021/11/19 06:18:18;;;;;;;83.65;45.03;;;;;;;10.45;100.00;102756.66;10563801;28;20096;-61
2021/11/19 06:23:33;;;;;;;80.03;45.30;;;;;;;10.39;100.00;102747.22;10581955;28;20044;-61
2021/11/19 06:28:41;;;;;;;85.47;47.00;;;;;;;10.44;100.00;102743.63;10564661;28;20040;-61
2021/11/19 06:33:43;;;;;;;65.13;37.42;;;;;;;10.43;100.00;102748.00;10563378;28;20043;-61
2021/11/19 06:38:47;;;;;;;69.68;40.55;;;;;;;10.41;100.00;102755.03;10581681;28;20057;-61
2021/11/19 06:43:50;;;;;;;63.08;39.03;;;;;;;10.47;100.00;102764.50;10563553;28;20044;-61
2021/11/19 06:48:53;;;;;;;82.72;45.63;;;;;;;10.39;100.00;102762.94;10581620;28;20056;-61
2021/11/19 06:53:55;;;;;;;88.10;45.28;;;;;;;10.50;100.00;102775.75;10581389;28;20051;-61
2021/11/19 06:58:58;;;;;;;85.75;47.75;;;;;;;10.46;100.00;102781.13;10581526;28;20051;-61
2021/11/19 07:04:00;;;;;;;72.97;40.45;;;;;;;10.52;100.00;102783.56;10581072;28;20484;-61
2021/11/19 07:09:04;;;;;;;79.82;42.05;;;;;;;10.49;100.00;102787.16;10581225;28;20050;-61
2021/11/19 07:14:07;;;;;;;70.00;42.58;;;;;;;10.59;100.00;102785.13;10580956;28;20054;-61
2021/11/19 07:19:10;;;;;;;68.43;41.65;;;;;;;10.47;100.00;102788.06;10563047;28;20050;-61
2021/11/19 07:24:12;;;;;;;60.72;38.45;;;;;;;10.57;100.00;102792.16;10580843;28;20051;-61
2021/11/19 07:29:15;;;;;;;58.58;36.92;;;;;;;10.60;100.00;102797.34;10587220;28;20047;-61
2021/11/19 07:34:18;;;;;;;69.28;39.38;;;;;;;10.69;100.00;102801.47;10588332;28;20047;-61
2021/11/19 07:39:20;;;;;;;64.45;38.75;;;;;;;10.60;100.00;102807.81;10587959;28;20048;-61
2021/11/19 07:44:23;;;;;;;66.47;40.00;;;;;;;10.72;100.00;102806.63;10588195;28;20083;-61
2021/11/19 07:49:26;;;;;;;64.03;38.67;;;;;;;10.69;100.00;102820.69;10587490;28;20039;-61
2021/11/19 07:54:28;;;;;;;65.53;38.88;;;;;;;10.79;100.00;102823.91;10587335;28;20498;-61
2021/11/19 07:59:32;;;;;;;58.95;36.35;;;;;;;10.70;100.00;102824.16;10587462;28;20047;-61
2021/11/19 08:04:35;;;;;;;65.05;37.97;;;;;;;10.66;100.00;102831.25;10587401;28;20055;-60
2021/11/19 08:09:38;;;;;;;59.35;35.28;;;;;;;10.88;100.00;102831.53;10586792;28;20051;-62
2021/11/19 08:14:43;;;;;;;62.75;37.92;;;;;;;10.90;100.00;102834.97;10587220;28;20040;-61
2021/11/19 08:19:46;;;;;;;59.45;34.92;;;;;;;10.81;100.00;102836.97;10586396;28;20062;-61
2021/11/19 08:24:49;;;;;;;59.72;36.38;;;;;;;10.74;100.00;102836.25;10586421;28;20101;-61
2021/11/19 08:29:54;;;;;;;53.67;32.55;;;;;;;10.88;100.00;102826.31;10568679;28;20048;-61
2021/11/19 08:34:57;;;;;;;57.97;34.78;;;;;;;10.90;100.00;102831.50;10567934;28;20048;-61
2021/11/19 08:40:00;;;;;;;54.90;34.58;;;;;;;10.90;100.00;102826.25;10584364;28;20047;-61
2021/11/19 08:45:04;;;;;;;57.53;34.28;;;;;;;10.92;100.00;102825.31;10550866;28;20047;-61
2021/11/19 08:50:27;;;;;;;52.60;32.78;;;;;;;10.98;100.00;102842.66;10569469;28;20043;-61
2021/11/19 08:55:29;;;;;;;49.00;33.42;;;;;;;11.14;100.00;102832.59;10585118;28;20050;-61
2021/11/19 09:00:35;;;;;;;49.25;31.73;;;;;;;11.10;100.00;102829.22;10567330;28;20063;-61
2021/11/19 09:05:42;;;;;;;50.15;32.88;;;;;;;11.15;100.00;102829.94;10584634;28;20403;-61
2021/11/19 09:10:46;;;;;;;47.97;31.80;;;;;;;11.15;100.00;102834.34;10566440;28;20059;-61
2021/11/19 09:15:50;;;;;;;49.08;31.05;;;;;;;11.10;100.00;102836.22;10584486;28;20043;-61
2021/11/19 09:21:26;;;;;;;50.92;33.17;;;;;;;11.23;100.00;102831.47;10584115;28;20052;-61
2021/11/19 09:26:37;;;;;;;47.53;30.10;;;;;;;11.29;100.00;102837.41;10566904;28;20122;-61
2021/11/19 09:31:41;;;;;;;52.03;28.63;;;;;;;11.28;100.00;102837.47;10583421;28;20051;-60
2021/11/19 09:36:44;;;;;;;50.05;31.02;;;;;;;11.27;100.00;102827.88;10583319;28;20055;-60
2021/11/19 09:42:02;;;;;;;35.78;25.48;;;;;;;11.47;100.00;102841.28;10583647;28;20064;-60
2021/11/19 09:47:19;;;;;;;38.78;25.92;;;;;;;11.61;100.00;102829.53;10565007;28;20043;-60
2021/11/19 09:52:35;;;;;;;47.10;28.10;;;;;;;11.56;100.00;102829.66;10582139;28;20395;-60
2021/11/19 09:57:54;;;;;;;33.85;24.58;;;;;;;11.48;100.00;102844.75;10564462;28;20491;-60
2021/11/19 10:03:12;;;;;;;37.38;24.15;;;;;;;11.70;100.00;102842.38;10582361;28;20055;-60
2021/11/19 10:08:21;;;;;;;32.53;24.17;;;;;;;11.87;100.00;102849.78;10582493;28;20047;-60
2021/11/19 10:13:27;;;;;;;29.45;22.30;;;;;;;12.02;100.00;102851.06;10564114;28;20411;-61
2021/11/19 10:18:53;;;;;;;34.80;22.52;;;;;;;12.19;100.00;102855.84;10582116;28;20475;-61
2021/11/19 10:24:24;;;;;;;31.90;21.65;;;;;;;12.20;100.00;102844.41;10564532;28;20121;-60
2021/11/19 10:29:37;;;;;;;30.38;21.15;;;;;;;12.13;100.00;102837.63;10534820;28;20048;-60
2021/11/19 10:35:04;;;;;;;36.20;23.35;;;;;;;12.32;100.00;102841.38;10546930;28;20380;-60
2021/11/19 10:40:31;;;;;;;28.58;21.67;;;;;;;12.21;100.00;102838.25;10581647;28;20059;-61
2021/11/19 10:46:04;;;;;;;30.45;22.05;;;;;;;12.37;100.00;102828.97;10581699;28;20050;-61
2021/11/19 10:51:32;;;;;;;30.58;20.88;;;;;;;12.19;100.00;102824.31;10581676;28;20080;-60
2021/11/19 10:56:58;;;;;;;27.35;19.15;;;;;;;12.75;100.00;102818.94;10563533;28;20052;-60
2021/11/19 11:02:24;;;;;;;30.00;20.83;;;;;;;13.05;100.00;102816.16;10566605;28;20066;-60
2021/11/19 11:07:41;;;;;;;30.38;18.98;;;;;;;12.73;100.00;102823.41;10589619;28;20090;-60
2021/11/19 11:12:43;;;;;;;25.40;18.27;;;;;;;12.63;100.00;102828.09;10571122;28;20043;-61
2021/11/19 11:18:04;;;;;;;24.30;16.75;;;;;;;12.51;100.00;102836.41;10589311;28;20048;-61
2021/11/19 11:23:25;;;;;;;25.17;18.83;;;;;;;12.53;100.00;102828.47;10589216;28;20051;-61
2021/11/19 11:28:47;;;;;;;29.60;18.37;;;;;;;12.93;100.00;102822.72;10588575;28;20093;-60
2021/11/19 11:34:09;;;;;;;22.92;15.57;;;;;;;12.41;100.00;102821.84;10588772;28;20289;-60
2021/11/19 11:39:19;;;;;;;23.17;16.55;;;;;;;12.56;100.00;102823.97;10588383;28;20054;-60
2021/11/19 11:44:41;;;;;;;18.27;13.15;;;;;;;12.41;100.00;102827.09;10570028;28;20062;-60
2021/11/19 11:49:52;;;;;;;15.48;11.00;;;;;;;12.43;100.00;102820.88;10588009;28;20043;-61
2021/11/19 11:55:18;;;;;;;15.48;9.32;;;;;;;12.66;100.00;102824.53;10569434;28;20506;-61
2021/11/19 12:00:26;;;;;;;7.03;6.22;;;;;;;12.52;100.00;102819.72;10587716;28;20043;-60
2021/11/19 12:05:40;;;;;;;14.88;5.63;;;;;;;12.60;100.00;102829.97;10569143;28;20051;-60
2021/11/19 12:11:16;;;;;;;9.38;6.00;;;;;;;12.36;100.00;102824.63;10586732;28;20505;-61
2021/11/19 12:16:30;;;;;;;11.27;7.20;;;;;;;12.25;100.00;102818.84;10587216;28;20051;-60
2021/11/19 12:21:51;;;;;;;11.52;7.70;;;;;;;12.30;100.00;102818.72;10586392;28;20437;-60
2021/11/19 12:27:25;;;;;;;9.05;6.28;;;;;;;12.30;100.00;102819.56;10568754;28;20054;-61
2021/11/19 12:32:41;;;;;;;11.15;6.93;;;;;;;12.55;100.00;102824.88;10568729;28;20056;-60
2021/11/19 12:38:09;;;;;;;14.30;6.35;;;;;;;12.75;100.00;102805.78;10585884;28;20044;-60
2021/11/19 12:43:33;;;;;;;21.00;6.75;;;;;;;12.89;100.00;102799.19;10585862;28;20066;-61
2021/11/19 12:48:54;;;;;;;7.43;5.72;;;;;;;12.75;100.00;102794.44;10585754;28;20047;-61
2021/11/19 12:54:29;;;;;;;12.73;6.07;;;;;;;12.50;100.00;102800.50;10586037;28;20050;-60
2021/11/19 12:59:59;;;;;;;10.00;5.55;;;;;;;12.51;100.00;102794.38;10546393;28;20044;-60
2021/11/19 13:05:04;;;;;;;9.75;5.65;;;;;;;12.42;100.00;102807.78;10566832;28;20474;-61
2021/11/19 13:10:15;;;;;;;10.20;5.97;;;;;;;12.44;100.00;102801.59;10584562;28;20043;-60
2021/11/19 13:15:29;;;;;;;10.15;5.38;;;;;;;12.36;100.00;102797.50;10584626;28;20052;-61
2021/11/19 13:20:34;;;;;;;6.95;4.75;;;;;;;12.47;100.00;102790.09;10584379;28;20051;-61
2021/11/19 13:25:42;;;;;;;7.47;4.32;;;;;;;12.59;100.00;102787.09;10583647;28;20059;-61
2021/11/19 13:30:45;;;;;;;6.15;3.92;;;;;;;12.43;100.00;102791.13;10565980;28;20047;-61
2021/11/19 13:36:03;;;;;;;7.72;4.90;;;;;;;12.39;100.00;102779.00;10565436;28;20479;-61
2021/11/19 13:41:27;;;;;;;5.82;4.57;;;;;;;12.39;100.00;102786.88;10583144;28;20140;-61
2021/11/19 13:46:43;;;;;;;11.23;4.72;;;;;;;12.29;100.00;102777.59;10583424;28;20043;-61
2021/11/19 13:52:07;;;;;;;9.35;4.55;;;;;;;12.34;100.00;102784.41;10564669;28;20502;-60
2021/11/19 13:57:23;;;;;;;9.90;5.18;;;;;;;12.27;100.00;102775.88;10564663;28;20047;-61
2021/11/19 14:02:30;;;;;;;9.48;4.43;;;;;;;12.48;100.00;102775.22;10564665;28;20052;-61
2021/11/19 14:07:35;;;;;;;11.63;5.13;;;;;;;12.35;100.00;102778.25;10564929;28;20040;-61
2021/11/19 14:12:44;;;;;;;10.18;4.90;;;;;;;12.42;100.00;102773.63;10582345;28;20051;-60
2021/11/19 14:17:47;;;;;;;7.72;4.88;;;;;;;12.23;100.00;102774.25;10582868;28;20054;-61
2021/11/19 14:23:30;;;;;;;8.32;5.38;;;;;;;12.22;100.00;102772.56;10582510;28;20051;-60
2021/11/19 14:28:47;;;;;;;11.13;5.05;;;;;;;12.19;100.00;102777.91;10582256;28;20047;-60
2021/11/19 14:34:06;;;;;;;6.68;5.07;;;;;;;12.24;100.00;102783.84;10581646;28;20407;-60
2021/11/19 14:39:17;;;;;;;6.93;5.47;;;;;;;12.16;100.00;102785.88;10590523;28;20043;-60
2021/11/19 14:44:38;;;;;;;7.88;4.30;;;;;;;12.28;100.00;102784.63;10590334;28;20051;-60
2021/11/19 14:49:46;;;;;;;7.32;3.90;;;;;;;12.18;100.00;102783.19;10590353;28;20043;-61
2021/11/19 14:54:52;;;;;;;8.63;4.05;;;;;;;12.13;100.00;102790.38;10590385;28;20134;-60
2021/11/19 15:00:04;;;;;;;11.50;4.00;;;;;;;12.12;100.00;102776.41;10572187;28;20047;-60
2021/11/19 15:05:17;;;;;;;7.22;3.25;;;;;;;12.13;100.00;102787.75;10589767;28;20051;-60
2021/11/19 15:10:37;;;;;;;11.60;3.35;;;;;;;12.17;100.00;102787.59;10571684;28;20044;-60
2021/11/19 15:15:52;;;;;;;5.97;3.70;;;;;;;12.10;100.00;102770.31;10572066;28;20050;-60
2021/11/19 15:21:32;;;;;;;5.30;4.00;;;;;;;12.21;100.00;102793.63;10570748;28;20047;-60
2021/11/19 15:26:42;;;;;;;5.85;3.20;;;;;;;12.12;100.00;102794.78;10546251;28;20073;-61
2021/11/19 15:32:08;;;;;;;9.77;3.92;;;;;;;12.06;100.00;102793.19;10588342;28;20421;-60
2021/11/19 15:37:44;;;;;;;7.72;4.22;;;;;;;11.87;100.00;102787.63;10589013;28;20043;-60
2021/11/19 15:42:50;;;;;;;8.93;4.30;;;;;;;11.90;100.00;102791.91;10569670;28;20424;-60
2021/11/19 15:47:52;;;;;;;13.90;4.20;;;;;;;12.04;100.00;102804.66;10587295;28;20475;-61
2021/11/19 15:53:00;;;;;;;7.65;3.75;;;;;;;11.93;100.00;102804.13;10587454;28;20055;-60
2021/11/19 15:58:13;;;;;;;5.78;3.92;;;;;;;11.96;100.00;102810.13;10570281;28;20153;-60
2021/11/19 16:03:43;;;;;;;16.52;4.00;;;;;;;11.90;100.00;102799.78;10587356;28;20052;-60
2021/11/19 16:08:57;;;;;;;13.55;4.95;;;;;;;11.88;100.00;102814.72;10587415;28;20048;-60
2021/11/19 16:14:15;;;;;;;8.23;4.53;;;;;;;11.95;100.00;102825.94;10569132;28;20058;-60
2021/11/19 16:19:19;;;;;;;7.20;3.95;;;;;;;11.91;100.00;102825.16;10569123;28;20054;-60
2021/11/19 16:24:27;;;;;;;10.98;5.50;;;;;;;12.00;100.00;102819.66;10586319;28;20051;-61
2021/11/19 16:29:31;;;;;;;7.13;3.85;;;;;;;11.78;100.00;102816.75;10568304;28;20047;-60
2021/11/19 16:34:34;;;;;;;7.43;3.60;;;;;;;11.84;100.00;102815.75;10586175;28;20050;-61
2021/11/19 16:39:36;;;;;;;6.68;4.05;;;;;;;11.78;100.00;102819.38;10585719;28;20506;-60
2021/11/19 16:44:41;;;;;;;8.88;3.75;;;;;;;12.06;100.00;102829.94;10585728;28;20051;-61
2021/11/19 16:49:43;;;;;;;10.15;3.83;;;;;;;11.89;100.00;102819.09;10585922;28;20043;-61
2021/11/19 16:54:50;;;;;;;12.43;5.38;;;;;;;11.78;100.00;102821.16;10567534;28;20043;-60
2021/11/19 16:59:54;;;;;;;9.23;5.47;;;;;;;11.87;100.00;102829.63;10566909;28;20066;-61
2021/11/19 17:04:56;;;;;;;8.82;5.05;;;;;;;11.82;100.00;102818.41;10567113;28;20062;-60
2021/11/19 17:09:59;;;;;;;11.80;6.18;;;;;;;11.58;100.00;102813.88;10584599;28;20389;-60
2021/11/19 17:15:01;;;;;;;10.18;6.22;;;;;;;11.58;100.00;102829.63;10584353;28;20488;-60
2021/11/19 17:20:04;;;;;;;7.50;6.80;;;;;;;11.73;100.00;102828.31;10566224;28;20503;-60
2021/11/19 17:25:08;;;;;;;9.98;7.20;;;;;;;11.65;100.00;102820.66;10583828;28;20058;-60
2021/11/19 17:30:13;;;;;;;14.10;8.02;;;;;;;11.60;100.00;102833.94;10583883;28;20044;-60
2021/11/19 17:35:18;;;;;;;9.43;7.30;;;;;;;11.55;100.00;102850.69;10583402;28;20491;-60
2021/11/19 17:40:23;;;;;;;12.98;8.43;;;;;;;11.61;100.00;102842.66;10565215;28;20064;-61
2021/11/19 17:45:36;;;;;;;11.23;8.27;;;;;;;11.68;100.00;102845.06;10583308;28;20491;-61
2021/11/19 17:50:39;;;;;;;11.10;7.95;;;;;;;11.56;100.00;102849.81;10583548;28;20048;-60
2021/11/19 17:55:44;;;;;;;10.68;8.05;;;;;;;11.49;100.00;102851.75;10583001;28;20047;-60
2021/11/19 18:00:57;;;;;;;12.18;8.43;;;;;;;11.52;100.00;102857.75;10582550;28;20043;-61
2021/11/19 18:06:01;;;;;;;17.77;10.98;;;;;;;11.48;100.00;102858.75;10564631;28;20380;-60
2021/11/19 18:11:07;;;;;;;15.25;9.35;;;;;;;11.43;100.00;102859.78;10563858;28;20445;-61
2021/11/19 18:16:12;;;;;;;17.55;9.13;;;;;;;11.45;100.00;102858.00;10582405;28;20040;-61
2021/11/19 18:21:20;;;;;;;20.20;10.07;;;;;;;11.31;100.00;102868.84;10582693;28;20044;-60
2021/11/19 18:26:27;;;;;;;14.82;9.98;;;;;;;11.37;100.00;102873.09;10582380;28;20067;-60
2021/11/19 18:31:40;;;;;;;13.32;8.82;;;;;;;11.33;100.00;102873.16;10563575;28;20423;-60
2021/11/19 18:36:50;;;;;;;17.42;10.38;;;;;;;11.28;100.00;102871.53;10582806;28;20089;-60
2021/11/19 18:41:53;;;;;;;20.75;11.85;;;;;;;11.31;100.00;102869.72;10565578;28;20052;-60
2021/11/19 18:46:55;;;;;;;16.90;11.48;;;;;;;11.17;100.00;102879.72;10581737;28;20052;-61
2021/11/19 18:52:04;;;;;;;28.55;10.80;;;;;;;11.03;100.00;102881.81;10563068;28;20046;-60
2021/11/19 18:57:09;;;;;;;17.23;9.95;;;;;;;10.89;100.00;102882.19;10581529;28;20057;-60
2021/11/19 19:02:14;;;;;;;13.05;9.75;;;;;;;10.82;100.00;102886.72;10581808;28;20062;-60
2021/11/19 19:07:17;;;;;;;19.38;10.40;;;;;;;10.72;100.00;102891.31;10563526;28;20051;-60
2021/11/19 19:12:21;;;;;;;17.10;10.60;;;;;;;10.78;100.00;102888.56;10580848;28;20395;-61
2021/11/19 19:17:28;;;;;;;17.67;10.73;;;;;;;10.72;100.00;102883.47;10581363;28;20050;-61
2021/11/19 19:22:32;;;;;;;14.85;10.18;;;;;;;10.73;100.00;102884.34;10582873;28;20047;-61
2021/11/19 19:27:40;;;;;;;15.75;10.60;;;;;;;10.65;100.00;102891.53;10589202;28;20055;-60
2021/11/19 19:32:43;;;;;;;16.95;11.63;;;;;;;10.63;100.00;102881.09;10553917;28;20043;-60
2021/11/19 19:37:50;;;;;;;15.77;11.07;;;;;;;10.55;100.00;102880.41;10588515;28;20040;-60
2021/11/19 19:42:56;;;;;;;15.93;11.38;;;;;;;10.39;100.00;102874.69;10588747;28;20056;-60
2021/11/19 19:48:01;;;;;;;23.33;13.90;;;;;;;10.48;100.00;102892.78;10588016;28;20483;-60
2021/11/19 19:53:04;;;;;;;15.80;12.23;;;;;;;10.51;100.00;102894.50;10587887;28;20048;-60
2021/11/19 19:58:07;;;;;;;13.18;9.43;;;;;;;10.59;100.00;102898.63;10587797;28;20044;-60
2021/11/19 20:03:10;;;;;;;20.17;11.23;;;;;;;10.59;100.00;102903.00;10588111;28;20047;-61
2021/11/19 20:08:12;;;;;;;21.75;12.35;;;;;;;10.67;100.00;102898.44;10587513;28;20058;-60
2021/11/19 20:13:15;;;;;;;18.27;11.93;;;;;;;10.72;100.00;102909.66;10586819;28;20044;-60
2021/11/19 20:18:20;;;;;;;16.92;12.13;;;;;;;10.69;100.00;102908.88;10587223;28;20050;-61
2021/11/19 20:23:25;;;;;;;20.92;12.70;;;;;;;10.74;100.00;102912.25;10586430;28;20054;-61
2021/11/19 20:28:29;;;;;;;19.52;11.63;;;;;;;10.86;100.00;102917.22;10587148;28;20160;-60
2021/11/19 20:33:40;;;;;;;21.25;11.82;;;;;;;10.72;100.00;102917.53;10585900;28;20082;-60
2021/11/19 20:38:43;;;;;;;;;;;;;;;10.79;100.00;102905.13;10586302;28;20414;-60
2021/11/19 20:43:46;;;;;;;19.25;12.30;;;;;;;10.62;100.00;102913.41;10585312;28;19927;-60
2021/11/19 20:48:51;;;;;;;13.02;10.18;;;;;;;10.81;100.00;102907.72;10567633;28;20044;-61
2021/11/19 20:53:57;;;;;;;18.58;10.00;;;;;;;10.90;100.00;102907.50;10567113;28;20506;-60
2021/11/19 20:59:05;;;;;;;;;;;;;;;10.76;100.00;102906.09;10585519;28;20052;-60
2021/11/19 21:04:10;;;;;;;17.65;10.68;;;;;;;10.75;100.00;102893.03;10584822;28;19924;-60
2021/11/19 21:09:13;;;;;;;19.88;12.95;;;;;;;10.83;100.00;102893.69;10585002;28;20047;-60
2021/11/19 21:14:16;;;;;;;16.63;12.13;;;;;;;10.73;100.00;102900.91;10584680;28;20050;-60
2021/11/19 21:19:20;;;;;;;26.45;12.55;;;;;;;10.84;100.00;102887.53;10584284;28;20051;-60
2021/11/19 21:24:24;;;;;;;19.23;11.98;;;;;;;10.68;100.00;102878.38;10584354;28;20054;-60
2021/11/19 21:29:27;;;;;;;18.55;12.63;;;;;;;10.71;100.00;102871.28;10584262;28;20056;-60
2021/11/19 21:34:30;;;;;;;16.20;10.60;;;;;;;10.81;100.00;102884.13;10583519;28;20047;-60
2021/11/19 21:39:32;;;;;;;15.90;12.18;;;;;;;10.76;100.00;102879.88;10565817;28;20048;-60
2021/11/19 21:44:36;;;;;;;18.63;11.93;;;;;;;10.71;100.00;102868.66;10582779;28;20059;-60
2021/11/19 21:49:41;;;;;;;14.52;10.80;;;;;;;10.67;100.00;102869.63;10583306;28;20047;-60
2021/11/19 21:55:03;;;;;;;15.18;12.23;;;;;;;10.71;100.00;102873.06;10564932;28;20419;-60
2021/11/19 22:00:21;;;;;;;20.88;13.35;;;;;;;10.86;100.00;102872.66;10582909;28;20052;-60
2021/11/19 22:05:46;;;;;;;17.13;11.93;;;;;;;10.67;100.00;102872.25;10582745;28;20055;-60
2021/11/19 22:10:51;;;;;;;19.88;13.80;;;;;;;10.76;100.00;102874.66;10567006;28;20051;-60
2021/11/19 22:15:54;;;;;;;15.93;12.40;;;;;;;10.64;100.00;102869.72;10582454;28;20047;-61
2021/11/19 22:21:01;;;;;;;14.98;9.80;;;;;;;10.82;100.00;102873.63;10582499;28;20100;-60
2021/11/19 22:26:04;;;;;;;20.55;14.35;;;;;;;10.70;100.00;102866.94;10564378;28;20047;-60
2021/11/19 22:31:14;;;;;;;15.60;11.77;;;;;;;10.63;100.00;102872.38;10564341;28;20054;-60
2021/11/19 22:36:17;;;;;;;11.60;9.32;;;;;;;10.69;100.00;102859.09;10563886;28;20446;-60
2021/11/19 22:41:27;;;;;;;14.57;10.98;;;;;;;10.60;100.00;102874.16;10581609;28;20055;-61
2021/11/19 22:46:30;;;;;;;22.13;10.60;;;;;;;10.65;100.00;102857.47;10582187;28;20053;-61
2021/11/19 22:51:37;;;;;;;13.88;10.43;;;;;;;10.66;100.00;102852.19;10581345;28;20043;-60
2021/11/19 22:56:42;;;;;;;13.98;10.25;;;;;;;10.67;100.00;102846.03;10582265;28;20376;-60